sensor_id;sensor_type;location;lat;lon;timestamp;temperature;humidity
79467;SHT30;68933;49.726;9.226;2024-02-23T00:00:42;10.2;59
79467;SHT30;68933;49.726;9.226;2024-02-23T00:02:55;10.1;59
79467;SHT30;68933;49.726;9.226;2024-02-23T00:05:08;10.1;59
79467;SHT30;68933;49.726;9.226;2024-02-23T00:07:21;10.1;59
79467;SHT30;68933;49.726;9.226;2024-02-23T00:09:34;10.1;59
79467;SHT30;68933;49.726;9.226;2024-02-23T00:11:47;10.1;59
79467;SHT30;68933;49.726;9.226;2024-02-23T00:14:00;10;59
79467;SHT30;68933;49.726;9.226;2024-02-23T00:16:13;10;59
79467;SHT30;68933;49.726;9.226;2024-02-23T00:18:26;9.9;58
79467;SHT30;68933;49.726;9.226;2024-02-23T00:20:39;9.9;58
79467;SHT30;68933;49.726;9.226;2024-02-23T00:22:52;9.8;58
79467;SHT30;68933;49.726;9.226;2024-02-23T00:25:05;9.8;58
79467;SHT30;68933;49.726;9.226;2024-02-23T00:33:30;9.8;58
79467;SHT30;68933;49.726;9.226;2024-02-23T00:35:43;9.7;58
79467;SHT30;68933;49.726;9.226;2024-02-23T00:37:55;9.7;58
79467;SHT30;68933;49.726;9.226;2024-02-23T00:40:09;9.7;58
79467;SHT30;68933;49.726;9.226;2024-02-23T00:42:22;9.7;58
79467;SHT30;68933;49.726;9.226;2024-02-23T00:44:35;9.7;58
79467;SHT30;68933;49.726;9.226;2024-02-23T00:46:47;9.6;59
79467;SHT30;68933;49.726;9.226;2024-02-23T00:49:01;9.6;59
79467;SHT30;68933;49.726;9.226;2024-02-23T00:51:14;9.6;59
79467;SHT30;68933;49.726;9.226;2024-02-23T00:53:26;9.6;59
79467;SHT30;68933;49.726;9.226;2024-02-23T00:55:39;9.6;59
79467;SHT30;68933;49.726;9.226;2024-02-23T00:57:52;9.6;58
79467;SHT30;68933;49.726;9.226;2024-02-23T01:00:06;9.6;58
79467;SHT30;68933;49.726;9.226;2024-02-23T01:02:18;9.5;58
79467;SHT30;68933;49.726;9.226;2024-02-23T01:04:32;9.5;58
79467;SHT30;68933;49.726;9.226;2024-02-23T01:06:44;9.5;58
79467;SHT30;68933;49.726;9.226;2024-02-23T01:08:57;9.5;58
79467;SHT30;68933;49.726;9.226;2024-02-23T01:11:11;9.5;58
79467;SHT30;68933;49.726;9.226;2024-02-23T01:13:23;9.5;58
79467;SHT30;68933;49.726;9.226;2024-02-23T01:15:36;9.5;58
79467;SHT30;68933;49.726;9.226;2024-02-23T01:17:49;9.5;58
79467;SHT30;68933;49.726;9.226;2024-02-23T01:20:03;9.5;58
79467;SHT30;68933;49.726;9.226;2024-02-23T01:22:15;9.4;58
79467;SHT30;68933;49.726;9.226;2024-02-23T01:24:28;9.4;58
79467;SHT30;68933;49.726;9.226;2024-02-23T01:26:41;9.4;58
79467;SHT30;68933;49.726;9.226;2024-02-23T01:28:54;9.4;58
79467;SHT30;68933;49.726;9.226;2024-02-23T01:31:08;9.3;58
79467;SHT30;68933;49.726;9.226;2024-02-23T01:33:21;9.3;58
79467;SHT30;68933;49.726;9.226;2024-02-23T01:35:34;9.2;58
79467;SHT30;68933;49.726;9.226;2024-02-23T01:37:46;9.2;58
79467;SHT30;68933;49.726;9.226;2024-02-23T01:40:00;9.2;58
79467;SHT30;68933;49.726;9.226;2024-02-23T01:42:12;9.2;58
79467;SHT30;68933;49.726;9.226;2024-02-23T01:44:25;9.2;58
79467;SHT30;68933;49.726;9.226;2024-02-23T01:46:38;9.1;59
79467;SHT30;68933;49.726;9.226;2024-02-23T01:48:51;9.1;59
79467;SHT30;68933;49.726;9.226;2024-02-23T01:51:05;9.1;59
79467;SHT30;68933;49.726;9.226;2024-02-23T01:53:17;9;59
79467;SHT30;68933;49.726;9.226;2024-02-23T01:55:30;9;59
79467;SHT30;68933;49.726;9.226;2024-02-23T01:57:44;9;58
79467;SHT30;68933;49.726;9.226;2024-02-23T01:59:56;9;58
79467;SHT30;68933;49.726;9.226;2024-02-23T02:02:09;9;58
79467;SHT30;68933;49.726;9.226;2024-02-23T02:04:22;9;59
79467;SHT30;68933;49.726;9.226;2024-02-23T02:06:36;9;59
79467;SHT30;68933;49.726;9.226;2024-02-23T02:08:48;9;59
79467;SHT30;68933;49.726;9.226;2024-02-23T02:11:02;9;59
79467;SHT30;68933;49.726;9.226;2024-02-23T02:13:14;8.9;59
79467;SHT30;68933;49.726;9.226;2024-02-23T02:15:27;8.9;59
79467;SHT30;68933;49.726;9.226;2024-02-23T02:17:40;8.9;59
79467;SHT30;68933;49.726;9.226;2024-02-23T02:19:54;8.9;59
79467;SHT30;68933;49.726;9.226;2024-02-23T02:22:07;8.9;59
79467;SHT30;68933;49.726;9.226;2024-02-23T02:24:19;8.9;59
79467;SHT30;68933;49.726;9.226;2024-02-23T02:26:32;8.9;59
79467;SHT30;68933;49.726;9.226;2024-02-23T02:28:45;8.8;62
79467;SHT30;68933;49.726;9.226;2024-02-23T02:30:58;8.8;62
79467;SHT30;68933;49.726;9.226;2024-02-23T02:33:11;8.8;62
79467;SHT30;68933;49.726;9.226;2024-02-23T02:35:24;8.5;62
79467;SHT30;68933;49.726;9.226;2024-02-23T02:37:38;8.5;62
79467;SHT30;68933;49.726;9.226;2024-02-23T02:39:50;8.3;63
79467;SHT30;68933;49.726;9.226;2024-02-23T02:42:04;8.3;63
79467;SHT30;68933;49.726;9.226;2024-02-23T02:44:16;8.3;63
79467;SHT30;68933;49.726;9.226;2024-02-23T02:46:29;8.1;63
79467;SHT30;68933;49.726;9.226;2024-02-23T02:48:42;8.1;63
79467;SHT30;68933;49.726;9.226;2024-02-23T02:50:55;8.1;63
79467;SHT30;68933;49.726;9.226;2024-02-23T02:53:09;8.1;63
79467;SHT30;68933;49.726;9.226;2024-02-23T02:55:21;8;63
79467;SHT30;68933;49.726;9.226;2024-02-23T02:57:34;8;63
79467;SHT30;68933;49.726;9.226;2024-02-23T02:59:47;8;63
79467;SHT30;68933;49.726;9.226;2024-02-23T03:02:00;7.9;63
79467;SHT30;68933;49.726;9.226;2024-02-23T03:04:14;7.9;63
79467;SHT30;68933;49.726;9.226;2024-02-23T03:06:26;7.9;62
79467;SHT30;68933;49.726;9.226;2024-02-23T03:08:41;7.9;62
79467;SHT30;68933;49.726;9.226;2024-02-23T03:10:52;7.7;62
79467;SHT30;68933;49.726;9.226;2024-02-23T03:13:05;7.7;62
79467;SHT30;68933;49.726;9.226;2024-02-23T03:15:18;7.7;62
79467;SHT30;68933;49.726;9.226;2024-02-23T03:17:31;7.6;63
79467;SHT30;68933;49.726;9.226;2024-02-23T03:19:44;7.6;63
79467;SHT30;68933;49.726;9.226;2024-02-23T03:21:58;7.5;63
79467;SHT30;68933;49.726;9.226;2024-02-23T03:24:11;7.5;63
79467;SHT30;68933;49.726;9.226;2024-02-23T03:26:23;7.4;63
79467;SHT30;68933;49.726;9.226;2024-02-23T03:28:37;7.4;63
79467;SHT30;68933;49.726;9.226;2024-02-23T03:30:50;7.4;63
79467;SHT30;68933;49.726;9.226;2024-02-23T03:33:03;7.4;63
79467;SHT30;68933;49.726;9.226;2024-02-23T03:35:16;7.4;63
79467;SHT30;68933;49.726;9.226;2024-02-23T03:37:28;7.3;63
79467;SHT30;68933;49.726;9.226;2024-02-23T03:39:42;7.3;63
79467;SHT30;68933;49.726;9.226;2024-02-23T03:41:54;7.2;63
79467;SHT30;68933;49.726;9.226;2024-02-23T03:44:07;7.2;63
79467;SHT30;68933;49.726;9.226;2024-02-23T03:46:20;7.2;65
79467;SHT30;68933;49.726;9.226;2024-02-23T03:48:33;7.2;65
79467;SHT30;68933;49.726;9.226;2024-02-23T03:50:46;7.2;65
79467;SHT30;68933;49.726;9.226;2024-02-23T03:52:59;7.2;65
79467;SHT30;68933;49.726;9.226;2024-02-23T03:55:13;7.2;65
79467;SHT30;68933;49.726;9.226;2024-02-23T03:57:26;7.2;65
79467;SHT30;68933;49.726;9.226;2024-02-23T03:59:38;7.2;65
79467;SHT30;68933;49.726;9.226;2024-02-23T04:01:51;7.2;65
79467;SHT30;68933;49.726;9.226;2024-02-23T04:04:05;7.2;65
79467;SHT30;68933;49.726;9.226;2024-02-23T04:06:17;7.2;65
79467;SHT30;68933;49.726;9.226;2024-02-23T04:08:30;7.2;65
79467;SHT30;68933;49.726;9.226;2024-02-23T04:10:43;7.2;65
79467;SHT30;68933;49.726;9.226;2024-02-23T04:12:57;7.2;65
79467;SHT30;68933;49.726;9.226;2024-02-23T04:15:10;7.2;65
79467;SHT30;68933;49.726;9.226;2024-02-23T04:17:22;7.1;65
79467;SHT30;68933;49.726;9.226;2024-02-23T04:19:35;7.1;65
79467;SHT30;68933;49.726;9.226;2024-02-23T04:21:49;7.1;65
79467;SHT30;68933;49.726;9.226;2024-02-23T04:24:02;7.1;65
79467;SHT30;68933;49.726;9.226;2024-02-23T04:26:15;7.1;65
79467;SHT30;68933;49.726;9.226;2024-02-23T04:28:27;7.1;65
79467;SHT30;68933;49.726;9.226;2024-02-23T04:30:40;7.1;65
79467;SHT30;68933;49.726;9.226;2024-02-23T04:32:53;7.1;65
79467;SHT30;68933;49.726;9.226;2024-02-23T04:35:07;7.1;65
79467;SHT30;68933;49.726;9.226;2024-02-23T04:37:19;7.1;65
79467;SHT30;68933;49.726;9.226;2024-02-23T04:39:32;7.1;65
79467;SHT30;68933;49.726;9.226;2024-02-23T04:41:46;7.2;65
79467;SHT30;68933;49.726;9.226;2024-02-23T04:43:59;7.2;65
79467;SHT30;68933;49.726;9.226;2024-02-23T04:46:11;7.2;65
79467;SHT30;68933;49.726;9.226;2024-02-23T04:48:25;7.2;65
79467;SHT30;68933;49.726;9.226;2024-02-23T04:50:37;7.1;65
79467;SHT30;68933;49.726;9.226;2024-02-23T04:52:50;7.1;65
79467;SHT30;68933;49.726;9.226;2024-02-23T04:55:04;7.1;66
79467;SHT30;68933;49.726;9.226;2024-02-23T04:57:17;7.1;66
79467;SHT30;68933;49.726;9.226;2024-02-23T04:59:29;7.1;66
79467;SHT30;68933;49.726;9.226;2024-02-23T05:01:42;7.1;66
79467;SHT30;68933;49.726;9.226;2024-02-23T05:03:55;7.1;66
79467;SHT30;68933;49.726;9.226;2024-02-23T05:06:09;7.1;66
79467;SHT30;68933;49.726;9.226;2024-02-23T05:08:22;7.1;66
79467;SHT30;68933;49.726;9.226;2024-02-23T05:10:34;7;65
79467;SHT30;68933;49.726;9.226;2024-02-23T05:12:48;7;65
79467;SHT30;68933;49.726;9.226;2024-02-23T05:15:00;7;65
79467;SHT30;68933;49.726;9.226;2024-02-23T05:17:13;7;65
79467;SHT30;68933;49.726;9.226;2024-02-23T05:19:26;7;65
79467;SHT30;68933;49.726;9.226;2024-02-23T05:21:39;7;63
79467;SHT30;68933;49.726;9.226;2024-02-23T05:23:52;7;63
79467;SHT30;68933;49.726;9.226;2024-02-23T05:26:06;7;63
79467;SHT30;68933;49.726;9.226;2024-02-23T05:28:18;7.1;65
79467;SHT30;68933;49.726;9.226;2024-02-23T05:30:31;7.1;65
79467;SHT30;68933;49.726;9.226;2024-02-23T05:32:44;7;66
79467;SHT30;68933;49.726;9.226;2024-02-23T05:34:57;7;66
79467;SHT30;68933;49.726;9.226;2024-02-23T05:37:10;7;66
79467;SHT30;68933;49.726;9.226;2024-02-23T05:39:23;7;66
79467;SHT30;68933;49.726;9.226;2024-02-23T05:41:36;7;66
79467;SHT30;68933;49.726;9.226;2024-02-23T05:43:49;7;66
79467;SHT30;68933;49.726;9.226;2024-02-23T05:46:03;7;66
79467;SHT30;68933;49.726;9.226;2024-02-23T05:48:15;7;66
79467;SHT30;68933;49.726;9.226;2024-02-23T05:50:28;7;66
79467;SHT30;68933;49.726;9.226;2024-02-23T05:52:41;7;66
79467;SHT30;68933;49.726;9.226;2024-02-23T05:54:55;7;66
79467;SHT30;68933;49.726;9.226;2024-02-23T05:57:07;7;66
79467;SHT30;68933;49.726;9.226;2024-02-23T05:59:20;6.9;66
79467;SHT30;68933;49.726;9.226;2024-02-23T06:01:33;6.9;66
79467;SHT30;68933;49.726;9.226;2024-02-23T06:03:46;6.9;66
79467;SHT30;68933;49.726;9.226;2024-02-23T06:05:59;6.9;66
79467;SHT30;68933;49.726;9.226;2024-02-23T06:08:12;6.9;66
79467;SHT30;68933;49.726;9.226;2024-02-23T06:10:25;6.9;66
79467;SHT30;68933;49.726;9.226;2024-02-23T06:12:39;6.9;66
79467;SHT30;68933;49.726;9.226;2024-02-23T06:14:51;6.9;66
79467;SHT30;68933;49.726;9.226;2024-02-23T06:17:04;6.9;66
79467;SHT30;68933;49.726;9.226;2024-02-23T06:19:17;6.9;66
79467;SHT30;68933;49.726;9.226;2024-02-23T06:21:30;6.9;66
79467;SHT30;68933;49.726;9.226;2024-02-23T06:23:44;6.8;65
79467;SHT30;68933;49.726;9.226;2024-02-23T06:25:56;6.8;65
79467;SHT30;68933;49.726;9.226;2024-02-23T06:28:09;6.8;65
79467;SHT30;68933;49.726;9.226;2024-02-23T06:30:22;6.7;66
79467;SHT30;68933;49.726;9.226;2024-02-23T06:32:35;6.7;66
79467;SHT30;68933;49.726;9.226;2024-02-23T06:34:48;6.7;66
79467;SHT30;68933;49.726;9.226;2024-02-23T06:37:01;6.7;66
79467;SHT30;68933;49.726;9.226;2024-02-23T06:39:14;6.6;66
79467;SHT30;68933;49.726;9.226;2024-02-23T06:41:27;6.6;66
79467;SHT30;68933;49.726;9.226;2024-02-23T06:43:40;6.6;66
79467;SHT30;68933;49.726;9.226;2024-02-23T06:45:54;6.5;68
79467;SHT30;68933;49.726;9.226;2024-02-23T06:48:07;6.5;68
79467;SHT30;68933;49.726;9.226;2024-02-23T06:50:19;6.5;68
79467;SHT30;68933;49.726;9.226;2024-02-23T06:52:32;6.5;68
79467;SHT30;68933;49.726;9.226;2024-02-23T06:54:45;6.4;68
79467;SHT30;68933;49.726;9.226;2024-02-23T06:56:58;6.4;68
79467;SHT30;68933;49.726;9.226;2024-02-23T06:59:11;6.3;69
79467;SHT30;68933;49.726;9.226;2024-02-23T07:01:25;6.3;69
79467;SHT30;68933;49.726;9.226;2024-02-23T07:03:37;6.3;69
79467;SHT30;68933;49.726;9.226;2024-02-23T07:05:50;6.3;69
79467;SHT30;68933;49.726;9.226;2024-02-23T07:08:04;6.3;69
79467;SHT30;68933;49.726;9.226;2024-02-23T07:10:16;6.3;69
79467;SHT30;68933;49.726;9.226;2024-02-23T07:12:29;6.3;69
79467;SHT30;68933;49.726;9.226;2024-02-23T07:14:42;6.3;68
79467;SHT30;68933;49.726;9.226;2024-02-23T07:16:56;6.3;68
79467;SHT30;68933;49.726;9.226;2024-02-23T07:19:08;6.3;68
79467;SHT30;68933;49.726;9.226;2024-02-23T07:21:22;6.3;68
79467;SHT30;68933;49.726;9.226;2024-02-23T07:23:34;6.3;69
79467;SHT30;68933;49.726;9.226;2024-02-23T07:25:47;6.3;69
79467;SHT30;68933;49.726;9.226;2024-02-23T07:28:00;6.3;69
79467;SHT30;68933;49.726;9.226;2024-02-23T07:30:14;6.3;69
79467;SHT30;68933;49.726;9.226;2024-02-23T07:32:27;6.3;69
79467;SHT30;68933;49.726;9.226;2024-02-23T07:34:39;6.3;69
79467;SHT30;68933;49.726;9.226;2024-02-23T07:36:53;6.3;69
79467;SHT30;68933;49.726;9.226;2024-02-23T07:39:05;6.3;69
79467;SHT30;68933;49.726;9.226;2024-02-23T07:41:18;6.3;69
79467;SHT30;68933;49.726;9.226;2024-02-23T07:43:31;6.3;70
79467;SHT30;68933;49.726;9.226;2024-02-23T07:45:44;6.3;70
79467;SHT30;68933;49.726;9.226;2024-02-23T07:47:58;6.3;69
79467;SHT30;68933;49.726;9.226;2024-02-23T07:50:10;6.3;69
79467;SHT30;68933;49.726;9.226;2024-02-23T07:52:24;6.3;69
79467;SHT30;68933;49.726;9.226;2024-02-23T07:54:36;6.4;69
79467;SHT30;68933;49.726;9.226;2024-02-23T07:56:49;6.4;69
79467;SHT30;68933;49.726;9.226;2024-02-23T07:59:02;6.4;69
79467;SHT30;68933;49.726;9.226;2024-02-23T08:01:15;6.4;69
79467;SHT30;68933;49.726;9.226;2024-02-23T08:03:29;6.4;69
79467;SHT30;68933;49.726;9.226;2024-02-23T08:05:41;6.4;69
79467;SHT30;68933;49.726;9.226;2024-02-23T08:07:55;6.5;69
79467;SHT30;68933;49.726;9.226;2024-02-23T08:10:08;6.5;69
79467;SHT30;68933;49.726;9.226;2024-02-23T08:12:20;6.5;69
79467;SHT30;68933;49.726;9.226;2024-02-23T08:14:33;6.7;69
79467;SHT30;68933;49.726;9.226;2024-02-23T08:16:46;6.7;69
79467;SHT30;68933;49.726;9.226;2024-02-23T08:19:00;6.7;68
79467;SHT30;68933;49.726;9.226;2024-02-23T08:21:12;6.7;68
79467;SHT30;68933;49.726;9.226;2024-02-23T08:23:25;6.7;68
79467;SHT30;68933;49.726;9.226;2024-02-23T08:25:38;6.7;68
79467;SHT30;68933;49.726;9.226;2024-02-23T08:27:51;6.7;68
79467;SHT30;68933;49.726;9.226;2024-02-23T08:30:05;6.8;68
79467;SHT30;68933;49.726;9.226;2024-02-23T08:32:17;6.8;68
79467;SHT30;68933;49.726;9.226;2024-02-23T08:34:31;7;67
79467;SHT30;68933;49.726;9.226;2024-02-23T08:36:43;7;67
79467;SHT30;68933;49.726;9.226;2024-02-23T08:38:56;7;67
79467;SHT30;68933;49.726;9.226;2024-02-23T08:41:09;7.1;66
79467;SHT30;68933;49.726;9.226;2024-02-23T08:43:22;7.1;66
79467;SHT30;68933;49.726;9.226;2024-02-23T08:45:35;7.1;65
79467;SHT30;68933;49.726;9.226;2024-02-23T08:47:48;7.1;65
79467;SHT30;68933;49.726;9.226;2024-02-23T08:50:02;7.1;65
79467;SHT30;68933;49.726;9.226;2024-02-23T08:52:14;7.3;63
79467;SHT30;68933;49.726;9.226;2024-02-23T08:54:28;7.3;63
79467;SHT30;68933;49.726;9.226;2024-02-23T08:56:40;7.6;63
79467;SHT30;68933;49.726;9.226;2024-02-23T08:58:53;7.6;63
79467;SHT30;68933;49.726;9.226;2024-02-23T09:01:06;7.9;62
79467;SHT30;68933;49.726;9.226;2024-02-23T09:03:19;7.9;62
79467;SHT30;68933;49.726;9.226;2024-02-23T09:05:32;7.9;62
79467;SHT30;68933;49.726;9.226;2024-02-23T09:07:45;8;62
79467;SHT30;68933;49.726;9.226;2024-02-23T09:09:58;8;62
79467;SHT30;68933;49.726;9.226;2024-02-23T09:12:12;8.2;61
79467;SHT30;68933;49.726;9.226;2024-02-23T09:14:24;8.2;61
79467;SHT30;68933;49.726;9.226;2024-02-23T09:16:37;8.4;59
79467;SHT30;68933;49.726;9.226;2024-02-23T09:18:50;8.4;59
79467;SHT30;68933;49.726;9.226;2024-02-23T09:21:04;8.4;59
79467;SHT30;68933;49.726;9.226;2024-02-23T09:23:16;8.6;59
79467;SHT30;68933;49.726;9.226;2024-02-23T09:25:29;8.6;59
79467;SHT30;68933;49.726;9.226;2024-02-23T09:27:42;8.8;58
79467;SHT30;68933;49.726;9.226;2024-02-23T09:29:55;8.8;58
79467;SHT30;68933;49.726;9.226;2024-02-23T09:32:08;8.8;57
79467;SHT30;68933;49.726;9.226;2024-02-23T09:34:21;8.8;57
79467;SHT30;68933;49.726;9.226;2024-02-23T09:36:34;8.8;57
79467;SHT30;68933;49.726;9.226;2024-02-23T09:38:47;8.8;57
79467;SHT30;68933;49.726;9.226;2024-02-23T09:41:00;8.8;57
79467;SHT30;68933;49.726;9.226;2024-02-23T09:43:14;8.9;58
79467;SHT30;68933;49.726;9.226;2024-02-23T09:45:27;8.9;58
79467;SHT30;68933;49.726;9.226;2024-02-23T09:47:39;9;57
79467;SHT30;68933;49.726;9.226;2024-02-23T09:49:53;9;57
79467;SHT30;68933;49.726;9.226;2024-02-23T09:52:07;9;57
79467;SHT30;68933;49.726;9.226;2024-02-23T09:54:18;9.1;55
79467;SHT30;68933;49.726;9.226;2024-02-23T09:56:32;9.1;55
79467;SHT30;68933;49.726;9.226;2024-02-23T09:58:45;9.1;57
79467;SHT30;68933;49.726;9.226;2024-02-23T10:00:58;9.1;57
79467;SHT30;68933;49.726;9.226;2024-02-23T10:03:10;9.2;55
79467;SHT30;68933;49.726;9.226;2024-02-23T10:05:26;9.2;55
79467;SHT30;68933;49.726;9.226;2024-02-23T10:07:37;9.4;54
79467;SHT30;68933;49.726;9.226;2024-02-23T10:09:49;9.4;54
79467;SHT30;68933;49.726;9.226;2024-02-23T10:12:03;9.4;54
79467;SHT30;68933;49.726;9.226;2024-02-23T10:14:15;9.4;54
79467;SHT30;68933;49.726;9.226;2024-02-23T10:16:28;9.4;54
79467;SHT30;68933;49.726;9.226;2024-02-23T10:18:41;9.5;54
79467;SHT30;68933;49.726;9.226;2024-02-23T10:20:55;9.5;54
79467;SHT30;68933;49.726;9.226;2024-02-23T10:23:08;9.6;54
79467;SHT30;68933;49.726;9.226;2024-02-23T10:25:21;9.6;54
79467;SHT30;68933;49.726;9.226;2024-02-23T10:27:33;9.7;54
79467;SHT30;68933;49.726;9.226;2024-02-23T10:29:49;9.7;54
79467;SHT30;68933;49.726;9.226;2024-02-23T10:31:59;10;54
79467;SHT30;68933;49.726;9.226;2024-02-23T10:34:12;10;54
79467;SHT30;68933;49.726;9.226;2024-02-23T10:36:26;10;54
79467;SHT30;68933;49.726;9.226;2024-02-23T10:38:39;10.1;52
79467;SHT30;68933;49.726;9.226;2024-02-23T10:40:51;10.1;52
79467;SHT30;68933;49.726;9.226;2024-02-23T10:43:04;10.3;52
79467;SHT30;68933;49.726;9.226;2024-02-23T10:45:18;10.3;52
79467;SHT30;68933;49.726;9.226;2024-02-23T10:47:31;10.2;51
79467;SHT30;68933;49.726;9.226;2024-02-23T10:49:43;10.2;51
79467;SHT30;68933;49.726;9.226;2024-02-23T10:51:57;10.2;51
79467;SHT30;68933;49.726;9.226;2024-02-23T10:54:10;10.2;51
79467;SHT30;68933;49.726;9.226;2024-02-23T10:56:22;10.1;51
79467;SHT30;68933;49.726;9.226;2024-02-23T10:58:35;10.1;51
79467;SHT30;68933;49.726;9.226;2024-02-23T11:00:49;10.1;52
79467;SHT30;68933;49.726;9.226;2024-02-23T11:03:02;10.1;52
79467;SHT30;68933;49.726;9.226;2024-02-23T11:05:14;10.1;52
79467;SHT30;68933;49.726;9.226;2024-02-23T11:07:29;10.1;52
79467;SHT30;68933;49.726;9.226;2024-02-23T11:09:41;10.1;52
79467;SHT30;68933;49.726;9.226;2024-02-23T11:11:54;10.1;52
79467;SHT30;68933;49.726;9.226;2024-02-23T11:14:07;10;52
79467;SHT30;68933;49.726;9.226;2024-02-23T11:16:21;10;52
79467;SHT30;68933;49.726;9.226;2024-02-23T11:18:34;10;52
79467;SHT30;68933;49.726;9.226;2024-02-23T11:20:53;10;52
79467;SHT30;68933;49.726;9.226;2024-02-23T11:22:58;10;52
79467;SHT30;68933;49.726;9.226;2024-02-23T11:25:11;10;52
79467;SHT30;68933;49.726;9.226;2024-02-23T11:27:24;10;52
79467;SHT30;68933;49.726;9.226;2024-02-23T11:29:37;10;52
79467;SHT30;68933;49.726;9.226;2024-02-23T11:31:51;10;52
79467;SHT30;68933;49.726;9.226;2024-02-23T11:34:07;10.1;52
79467;SHT30;68933;49.726;9.226;2024-02-23T11:36:24;10.1;52
79467;SHT30;68933;49.726;9.226;2024-02-23T11:38:30;10.1;52
79467;SHT30;68933;49.726;9.226;2024-02-23T11:40:43;10.2;52
79467;SHT30;68933;49.726;9.226;2024-02-23T11:42:55;10.2;52
79467;SHT30;68933;49.726;9.226;2024-02-23T11:45:09;10.3;52
79467;SHT30;68933;49.726;9.226;2024-02-23T11:47:21;10.3;52
79467;SHT30;68933;49.726;9.226;2024-02-23T11:49:34;10.4;52
79467;SHT30;68933;49.726;9.226;2024-02-23T11:51:47;10.4;52
79467;SHT30;68933;49.726;9.226;2024-02-23T11:54:00;10.4;52
79467;SHT30;68933;49.726;9.226;2024-02-23T11:56:14;10.6;51
79467;SHT30;68933;49.726;9.226;2024-02-23T11:58:26;10.6;51
79467;SHT30;68933;49.726;9.226;2024-02-23T12:00:39;10.7;51
79467;SHT30;68933;49.726;9.226;2024-02-23T12:02:52;10.7;51
79467;SHT30;68933;49.726;9.226;2024-02-23T12:05:06;10.7;51
79467;SHT30;68933;49.726;9.226;2024-02-23T12:07:18;10.7;51
79467;SHT30;68933;49.726;9.226;2024-02-23T12:09:31;10.7;51
79467;SHT30;68933;49.726;9.226;2024-02-23T12:11:45;10.7;50
79467;SHT30;68933;49.726;9.226;2024-02-23T12:13:58;10.7;50
79467;SHT30;68933;49.726;9.226;2024-02-23T12:16:10;10.6;51
79467;SHT30;68933;49.726;9.226;2024-02-23T12:18:23;10.6;51
79467;SHT30;68933;49.726;9.226;2024-02-23T12:20:36;10.7;51
79467;SHT30;68933;49.726;9.226;2024-02-23T12:22:49;10.7;51
79467;SHT30;68933;49.726;9.226;2024-02-23T12:25:03;10.7;51
79467;SHT30;68933;49.726;9.226;2024-02-23T12:27:16;10.8;51
79467;SHT30;68933;49.726;9.226;2024-02-23T12:29:28;10.8;51
79467;SHT30;68933;49.726;9.226;2024-02-23T12:31:41;11.1;52
79467;SHT30;68933;49.726;9.226;2024-02-23T12:33:56;11.1;52
79467;SHT30;68933;49.726;9.226;2024-02-23T12:36:08;11.4;51
79467;SHT30;68933;49.726;9.226;2024-02-23T12:38:21;11.4;51
79467;SHT30;68933;49.726;9.226;2024-02-23T12:40:33;11.4;51
79467;SHT30;68933;49.726;9.226;2024-02-23T12:42:46;11.4;51
79467;SHT30;68933;49.726;9.226;2024-02-23T12:44:59;11.4;51
79467;SHT30;68933;49.726;9.226;2024-02-23T12:47:12;11.6;51
79467;SHT30;68933;49.726;9.226;2024-02-23T12:49:25;11.6;51
79467;SHT30;68933;49.726;9.226;2024-02-23T12:51:38;11.7;51
79467;SHT30;68933;49.726;9.226;2024-02-23T12:53:51;11.7;51
79467;SHT30;68933;49.726;9.226;2024-02-23T12:56:05;11.7;51
79467;SHT30;68933;49.726;9.226;2024-02-23T12:58:17;11.6;51
79467;SHT30;68933;49.726;9.226;2024-02-23T13:00:30;11.6;51
79467;SHT30;68933;49.726;9.226;2024-02-23T13:02:43;11.6;51
79467;SHT30;68933;49.726;9.226;2024-02-23T13:04:56;11.6;51
79467;SHT30;68933;49.726;9.226;2024-02-23T13:07:09;11.6;51
79467;SHT30;68933;49.726;9.226;2024-02-23T13:09:22;11.6;51
79467;SHT30;68933;49.726;9.226;2024-02-23T13:11:35;11.6;51
79467;SHT30;68933;49.726;9.226;2024-02-23T13:13:48;11.6;51
79467;SHT30;68933;49.726;9.226;2024-02-23T13:16:02;11.6;51
79467;SHT30;68933;49.726;9.226;2024-02-23T13:18:14;11.4;51
79467;SHT30;68933;49.726;9.226;2024-02-23T13:20:27;11.4;51
79467;SHT30;68933;49.726;9.226;2024-02-23T13:22:40;11.3;51
79467;SHT30;68933;49.726;9.226;2024-02-23T13:24:54;11.3;51
79467;SHT30;68933;49.726;9.226;2024-02-23T13:27:07;11.3;51
79467;SHT30;68933;49.726;9.226;2024-02-23T13:29:19;11.3;51
79467;SHT30;68933;49.726;9.226;2024-02-23T13:31:32;11.2;51
79467;SHT30;68933;49.726;9.226;2024-02-23T13:33:45;11.2;51
79467;SHT30;68933;49.726;9.226;2024-02-23T13:35:59;11.1;52
79467;SHT30;68933;49.726;9.226;2024-02-23T13:38:11;11.1;52
79467;SHT30;68933;49.726;9.226;2024-02-23T13:40:24;11.1;52
79467;SHT30;68933;49.726;9.226;2024-02-23T13:42:38;11.1;52
79467;SHT30;68933;49.726;9.226;2024-02-23T13:44:50;11.1;52
79467;SHT30;68933;49.726;9.226;2024-02-23T13:47:03;11;52
79467;SHT30;68933;49.726;9.226;2024-02-23T13:49:17;11;52
79467;SHT30;68933;49.726;9.226;2024-02-23T13:51:29;11;52
79467;SHT30;68933;49.726;9.226;2024-02-23T13:53:42;11;52
79467;SHT30;68933;49.726;9.226;2024-02-23T13:55:55;10.9;52
79467;SHT30;68933;49.726;9.226;2024-02-23T13:58:08;10.9;52
79467;SHT30;68933;49.726;9.226;2024-02-23T14:00:21;10.9;51
79467;SHT30;68933;49.726;9.226;2024-02-23T14:02:34;10.9;51
79467;SHT30;68933;49.726;9.226;2024-02-23T14:04:47;10.8;52
79467;SHT30;68933;49.726;9.226;2024-02-23T14:07:00;10.8;52
79467;SHT30;68933;49.726;9.226;2024-02-23T14:09:13;10.8;52
79467;SHT30;68933;49.726;9.226;2024-02-23T14:11:26;10.6;52
79467;SHT30;68933;49.726;9.226;2024-02-23T14:13:39;10.6;52
79467;SHT30;68933;49.726;9.226;2024-02-23T14:15:52;10.6;54
79467;SHT30;68933;49.726;9.226;2024-02-23T14:18:05;10.6;54
79467;SHT30;68933;49.726;9.226;2024-02-23T14:20:18;10.6;54
79467;SHT30;68933;49.726;9.226;2024-02-23T14:22:31;10.6;54
79467;SHT30;68933;49.726;9.226;2024-02-23T14:24:44;10.6;54
79467;SHT30;68933;49.726;9.226;2024-02-23T14:26:57;11;54
79467;SHT30;68933;49.726;9.226;2024-02-23T14:29:11;11;54
79467;SHT30;68933;49.726;9.226;2024-02-23T14:31:23;11;54
79467;SHT30;68933;49.726;9.226;2024-02-23T14:33:36;11.6;54
79467;SHT30;68933;49.726;9.226;2024-02-23T14:35:49;11.6;54
79467;SHT30;68933;49.726;9.226;2024-02-23T14:38:02;12.3;52
79467;SHT30;68933;49.726;9.226;2024-02-23T14:40:15;12.3;52
79467;SHT30;68933;49.726;9.226;2024-02-23T14:42:28;12.3;52
79467;SHT30;68933;49.726;9.226;2024-02-23T14:44:41;13.2;52
79467;SHT30;68933;49.726;9.226;2024-02-23T14:46:54;13.2;52
79467;SHT30;68933;49.726;9.226;2024-02-23T14:49:07;13.5;52
79467;SHT30;68933;49.726;9.226;2024-02-23T14:51:20;13.5;52
79467;SHT30;68933;49.726;9.226;2024-02-23T14:53:33;13.5;52
79467;SHT30;68933;49.726;9.226;2024-02-23T14:55:46;13.7;49
79467;SHT30;68933;49.726;9.226;2024-02-23T14:57:59;13.7;49
79467;SHT30;68933;49.726;9.226;2024-02-23T15:00:13;13.8;47
79467;SHT30;68933;49.726;9.226;2024-02-23T15:02:25;13.8;47
79467;SHT30;68933;49.726;9.226;2024-02-23T15:04:38;13.1;48
79467;SHT30;68933;49.726;9.226;2024-02-23T15:06:51;13.1;48
79467;SHT30;68933;49.726;9.226;2024-02-23T15:09:05;13.1;48
79467;SHT30;68933;49.726;9.226;2024-02-23T15:11:17;12.8;48
79467;SHT30;68933;49.726;9.226;2024-02-23T15:13:30;12.8;48
79467;SHT30;68933;49.726;9.226;2024-02-23T15:15:43;12.3;48
79467;SHT30;68933;49.726;9.226;2024-02-23T15:17:56;12.3;48